RUNWAY INFORMATION
Runway Length Width Elevation Displaced
Threshold
Heading | Runway Length Width Elevation Displaced
Threshold
Heading
05 1893 ft 151 ft 203 ft 0 ft 46 | 23 1893 ft 151 ft 190 ft 0 ft 226
14 2165 ft 75 ft 200 ft 0 ft 139 | 32 2165 ft 75 ft 197 ft 0 ft 319
16 6001 ft 151 ft 203 ft 0 ft 158 | 34 6001 ft 151 ft 215 ft 0 ft 338
18 853 ft 75 ft 200 ft 0 ft 179 | 36 853 ft 75 ft 199 ft 0 ft 359

 AIRPORT FREQUENCIES
Type APP Name ABERDEEN A Frequency 119.05 MHZ
Type ATIS Name ABERDEEN A Frequency 114.3 MHZ
Type GND Name ABERDEEN G Frequency 121.7 MHZ
Type INFO Name ABERDEEN I Frequency 135.175 MHZ
Type TWR Name ABERDEEN T Frequency 118.1 MHZ

 AIRPORT NEAR NAVIGATION AIDS
Type VOR-DME Name Aberdeen Frequency 114300 KHZ
Type NDB Name Aberdeen Frequency 336 KHZ
Type NDB Name Aberdeen/Dyce Frequency 348 KHZ

 METAR AND TAF INFORMATION
METAR FOR EGPD
ADDS - METARS form results

(1846 UTC 25 February 2021)
Data provider http://aviationweather.gov/metar/data/
 
METAR text: EGPD 251820Z AUTO 24006KT 200V270 9999 NCD 07/01 Q1022 NOSIG
Conditions at: EGPD (ABERDEEN/DYCE , GB) observed 1820 UTC 25 February 2021
Temperature: 7.0°C (45°F)
Dewpoint: 1.0°C (34°F) [RH = 66%]
Pressure (altimeter): 30.18 inches Hg (1022.0 mb)
Winds: from the WSW (240 degrees) at 7 MPH (6 knots; 3.1 m/s)
Visibility: 6 or more miles (10+ km)
Ceiling: at least 12,000 feet AGL
Clouds: sky clear below 12,000 feet AGL
Weather: no significant weather observed at this time

METAR text: EGPD 251750Z AUTO 27009KT 240V310 9999 NCD 07/01 Q1021
Conditions at: EGPD (ABERDEEN/DYCE , GB) observed 1750 UTC 25 February 2021
Temperature: 7.0°C (45°F)
Dewpoint: 1.0°C (34°F) [RH = 66%]
Pressure (altimeter): 30.15 inches Hg (1021.0 mb)
Winds: from the W (270 degrees) at 10 MPH (9 knots; 4.6 m/s)
Visibility: 6 or more miles (10+ km)
Ceiling: at least 12,000 feet AGL
Clouds: sky clear below 12,000 feet AGL
Weather: no significant weather observed at this time

Forecast for: EGPD (ABERDEEN/DYCE , GB)
Text: TAF EGPD 251656Z 2518/2618 26009KT 9999 FEW030
Forecast period: 1800 UTC 25 February 2021 to 1800 UTC 26 February 2021
Forecast type: FROM: standard forecast or significant change
Winds: from the W (260 degrees) at 10 MPH (9 knots; 4.6 m/s)
Visibility: 6 or more miles (10+ km)
Ceiling: at least 12,000 feet AGL
Clouds: few clouds at 3000 feet AGL
Weather: no significant weather forecast for this period



© 2013 - 2021, FlightSimLog.org - Powered by Virtual Airlines Manager